createdAt,value
2023-01-23T00:01:44.327Z,0.80
2023-01-23T00:03:46.257Z,0.70
2023-01-23T00:06:01.050Z,0.70
2023-01-23T00:08:02.782Z,0.60
2023-01-23T00:10:04.974Z,0.60
2023-01-23T00:12:06.886Z,0.60
2023-01-23T00:14:09.973Z,0.60
2023-01-23T00:16:14.991Z,0.60
2023-01-23T00:18:16.830Z,0.60
2023-01-23T00:20:18.942Z,0.70
2023-01-23T00:22:20.827Z,0.70
2023-01-23T00:24:22.527Z,0.70
2023-01-23T00:26:26.531Z,0.70
2023-01-23T00:28:28.227Z,0.70
2023-01-23T00:30:30.040Z,0.70
2023-01-23T00:32:31.814Z,0.70
2023-01-23T00:34:33.767Z,0.70
2023-01-23T00:36:40.569Z,0.70
2023-01-23T00:38:43.083Z,0.70
2023-01-23T00:40:44.673Z,0.80
2023-01-23T00:42:46.433Z,0.90
2023-01-23T00:44:48.241Z,0.90
2023-01-23T00:46:49.968Z,0.90
2023-01-23T00:48:52.512Z,0.90
2023-01-23T00:50:54.342Z,0.90
2023-01-23T00:52:56.126Z,0.90
2023-01-23T00:54:57.829Z,0.90
2023-01-23T00:56:59.511Z,0.90
2023-01-23T00:59:01.294Z,1.00
2023-01-23T01:01:03.160Z,0.90
2023-01-23T01:03:05.677Z,0.90
2023-01-23T01:05:07.547Z,0.90
2023-01-23T01:07:09.308Z,0.90
2023-01-23T01:09:12.205Z,0.90
2023-01-23T01:11:13.987Z,0.90
2023-01-23T01:13:19.561Z,0.90
2023-01-23T01:15:21.349Z,0.90
2023-01-23T01:17:23.099Z,1.00
2023-01-23T01:19:24.809Z,0.90
2023-01-23T01:21:26.606Z,0.90
2023-01-23T01:23:28.421Z,1.00
2023-01-23T01:25:30.731Z,1.00
2023-01-23T01:27:32.542Z,1.00
2023-01-23T01:29:34.322Z,1.00
2023-01-23T01:31:36.093Z,1.00
2023-01-23T01:33:39.485Z,1.00
2023-01-23T01:35:41.553Z,1.00
2023-01-23T01:37:43.321Z,1.10
2023-01-23T01:39:45.005Z,1.10
2023-01-23T01:41:46.829Z,1.00
2023-01-23T01:43:48.551Z,1.00
2023-01-23T01:46:08.798Z,1.00
2023-01-23T01:48:10.552Z,1.00
2023-01-23T01:50:13.645Z,0.90
2023-01-23T01:52:16.609Z,0.90
2023-01-23T01:54:42.976Z,0.90
2023-01-23T01:57:18.935Z,1.00
2023-01-23T01:59:23.114Z,0.90
2023-01-23T02:01:25.465Z,0.90
2023-01-23T02:03:27.418Z,0.90
2023-01-23T02:05:35.952Z,0.90
2023-01-23T02:07:43.531Z,0.80
2023-01-23T02:09:45.962Z,0.80
2023-01-23T02:11:48.646Z,0.90
2023-01-23T02:13:51.050Z,0.90
2023-01-23T02:15:53.263Z,0.90
2023-01-23T02:17:55.612Z,0.90
2023-01-23T02:20:19.178Z,0.90
2023-01-23T02:23:05.193Z,0.90
2023-01-23T02:25:18.114Z,1.00
2023-01-23T02:27:19.861Z,1.00
2023-01-23T02:29:21.637Z,1.00
2023-01-23T02:31:23.722Z,1.00
2023-01-23T02:33:25.472Z,0.90
2023-01-23T02:35:31.167Z,1.00
2023-01-23T02:37:34.510Z,0.90
2023-01-23T02:39:37.088Z,0.90
2023-01-23T02:41:42.820Z,1.00
2023-01-23T02:43:45.589Z,1.00
2023-01-23T02:45:48.091Z,1.00
2023-01-23T02:47:49.708Z,1.00
2023-01-23T02:49:51.607Z,1.00
2023-01-23T02:51:55.219Z,1.00
2023-01-23T02:53:56.986Z,1.00
2023-01-23T02:56:00.670Z,1.00
2023-01-23T02:58:21.129Z,1.10
2023-01-23T03:00:22.934Z,1.10
2023-01-23T03:02:24.844Z,1.10
2023-01-23T03:04:26.781Z,1.10
2023-01-23T03:06:28.565Z,1.10
2023-01-23T03:08:36.051Z,1.10
2023-01-23T03:10:37.781Z,1.10
2023-01-23T03:12:43.365Z,1.10
2023-01-23T03:14:45.144Z,1.20
2023-01-23T03:16:51.405Z,1.10
2023-01-23T03:18:54.569Z,1.20
2023-01-23T03:21:02.244Z,1.20
2023-01-23T03:23:03.939Z,1.20
2023-01-23T03:25:05.926Z,1.20
2023-01-23T03:27:07.753Z,1.20
2023-01-23T03:29:37.654Z,1.10
2023-01-23T03:31:39.434Z,1.20
2023-01-23T03:33:43.373Z,1.20
2023-01-23T03:35:45.560Z,1.20
2023-01-23T03:37:49.578Z,1.20
2023-01-23T03:40:10.159Z,1.20
2023-01-23T03:42:12.077Z,1.20
2023-01-23T03:44:13.937Z,1.20
2023-01-23T03:46:15.662Z,1.20
2023-01-23T03:48:17.464Z,1.20
2023-01-23T03:50:19.426Z,1.20
2023-01-23T03:52:21.380Z,1.20
2023-01-23T03:54:24.397Z,1.20
2023-01-23T03:56:26.080Z,1.20
2023-01-23T03:58:28.033Z,1.20
2023-01-23T04:00:29.784Z,1.20
2023-01-23T04:02:32.273Z,1.30
2023-01-23T04:04:34.330Z,1.20
2023-01-23T04:06:36.249Z,1.30
2023-01-23T04:08:37.990Z,1.20
2023-01-23T04:10:39.698Z,1.30
2023-01-23T04:12:43.352Z,1.20
2023-01-23T04:14:45.125Z,1.20
2023-01-23T04:16:47.120Z,1.30
2023-01-23T04:18:50.680Z,1.30
2023-01-23T04:20:52.501Z,1.40
2023-01-23T04:22:54.232Z,1.40
2023-01-23T04:24:55.944Z,1.30
2023-01-23T04:26:57.689Z,1.30
2023-01-23T04:28:59.383Z,1.40
2023-01-23T04:31:01.660Z,1.40
2023-01-23T04:33:03.571Z,1.40
2023-01-23T04:35:05.724Z,1.30
2023-01-23T04:37:07.379Z,1.30
2023-01-23T04:39:14.233Z,1.30
2023-01-23T04:41:55.448Z,1.20
2023-01-23T04:43:57.371Z,1.30
2023-01-23T04:45:59.268Z,1.20
2023-01-23T04:48:00.945Z,1.20
2023-01-23T04:50:03.093Z,1.20
2023-01-23T04:52:04.888Z,1.20
2023-01-23T04:54:06.651Z,1.20
2023-01-23T04:56:08.474Z,1.20
2023-01-23T04:58:11.358Z,1.20
2023-01-23T05:00:13.738Z,1.20
2023-01-23T05:02:15.722Z,1.20
2023-01-23T05:04:17.422Z,1.20
2023-01-23T05:06:20.217Z,1.20
2023-01-23T05:08:22.013Z,1.20
2023-01-23T05:10:23.744Z,1.20
2023-01-23T05:12:25.481Z,1.20
2023-01-23T05:14:27.192Z,1.20
2023-01-23T05:16:28.903Z,1.20
2023-01-23T05:18:30.586Z,1.30
2023-01-23T05:20:32.277Z,1.30
2023-01-23T05:22:34.061Z,1.20
2023-01-23T05:24:35.898Z,1.20
2023-01-23T05:26:37.550Z,1.30
2023-01-23T05:28:39.278Z,1.30
2023-01-23T05:30:41.056Z,1.30
2023-01-23T05:32:42.966Z,1.30
2023-01-23T05:34:45.058Z,1.30
2023-01-23T05:36:46.768Z,1.30
2023-01-23T05:38:48.515Z,1.30
2023-01-23T05:40:50.846Z,1.30
2023-01-23T05:42:52.614Z,1.30
2023-01-23T05:44:54.401Z,1.30
2023-01-23T05:46:56.162Z,1.20
2023-01-23T05:48:57.918Z,1.30
2023-01-23T05:51:03.671Z,1.30
2023-01-23T05:53:05.428Z,1.30
2023-01-23T05:55:07.526Z,1.30
2023-01-23T05:57:09.627Z,1.40
2023-01-23T05:59:11.309Z,1.30
2023-01-23T06:01:13.210Z,1.30
2023-01-23T06:03:15.117Z,1.30
2023-01-23T06:05:16.931Z,1.40
2023-01-23T06:07:19.852Z,1.40
2023-01-23T06:09:21.577Z,1.40
2023-01-23T06:11:23.279Z,1.40
2023-01-23T06:13:26.079Z,1.40
2023-01-23T06:15:27.788Z,1.40
2023-01-23T06:17:29.501Z,1.30
2023-01-23T06:19:31.457Z,1.30
2023-01-23T06:21:33.213Z,1.30
2023-01-23T06:23:34.976Z,1.30
2023-01-23T06:25:37.711Z,1.30
2023-01-23T06:27:39.653Z,1.20
2023-01-23T06:29:41.332Z,1.20
2023-01-23T06:31:43.104Z,1.20
2023-01-23T06:33:44.811Z,1.10
2023-01-23T06:35:46.533Z,1.10
2023-01-23T06:37:48.363Z,1.10
2023-01-23T06:39:50.052Z,1.10
2023-01-23T06:41:51.873Z,1.10
2023-01-23T06:43:54.860Z,1.10
2023-01-23T06:45:56.620Z,1.00
2023-01-23T06:47:58.324Z,1.00
2023-01-23T06:50:01.950Z,1.00
2023-01-23T06:52:03.865Z,1.00
2023-01-23T06:54:05.936Z,1.00
2023-01-23T06:56:08.189Z,1.00
2023-01-23T06:58:10.058Z,1.00
2023-01-23T07:00:12.556Z,1.00
2023-01-23T07:02:14.303Z,1.00
2023-01-23T07:04:15.997Z,1.00
2023-01-23T07:06:18.130Z,1.00
2023-01-23T07:08:19.825Z,1.00
2023-01-23T07:10:23.386Z,1.00
2023-01-23T07:12:25.218Z,1.00
2023-01-23T07:14:27.197Z,1.00
2023-01-23T07:16:29.266Z,1.00
2023-01-23T07:18:32.617Z,1.00
2023-01-23T07:20:34.347Z,0.90
2023-01-23T07:22:36.049Z,0.80
2023-01-23T07:24:37.812Z,0.90
2023-01-23T07:26:39.480Z,0.90
2023-01-23T07:28:41.687Z,0.80
2023-01-23T07:30:43.416Z,0.90
2023-01-23T07:32:45.187Z,0.90
2023-01-23T07:34:46.908Z,0.80
2023-01-23T07:36:48.632Z,0.80
2023-01-23T07:38:50.359Z,0.70
2023-01-23T07:40:55.394Z,0.70
2023-01-23T07:42:57.325Z,0.70
2023-01-23T07:44:59.029Z,0.80
2023-01-23T07:47:00.833Z,0.70
2023-01-23T07:49:02.563Z,0.70
2023-01-23T07:51:05.088Z,0.70
2023-01-23T07:53:07.175Z,0.80
2023-01-23T07:55:09.184Z,0.80
2023-01-23T07:57:10.926Z,0.90
2023-01-23T07:59:13.371Z,0.80
2023-01-23T08:01:15.057Z,0.90
2023-01-23T08:03:16.778Z,0.90
2023-01-23T08:05:18.549Z,0.90
2023-01-23T08:07:20.328Z,1.00
2023-01-23T08:09:22.088Z,1.00
2023-01-23T08:11:26.489Z,1.10
2023-01-23T08:13:28.151Z,1.10
2023-01-23T08:15:29.870Z,1.20
2023-01-23T08:17:31.662Z,1.20
2023-01-23T08:19:33.442Z,1.20
2023-01-23T08:21:35.713Z,1.40
2023-01-23T08:23:37.560Z,1.40
2023-01-23T08:25:39.341Z,1.40
2023-01-23T08:27:41.050Z,1.40
2023-01-23T08:29:42.907Z,1.40
2023-01-23T08:31:44.732Z,1.50
2023-01-23T08:33:46.828Z,1.50
2023-01-23T08:35:58.814Z,1.50
2023-01-23T08:38:02.366Z,1.50
2023-01-23T08:40:05.174Z,1.50
2023-01-23T08:42:06.876Z,1.40
2023-01-23T08:44:08.694Z,1.40
2023-01-23T08:46:11.110Z,1.40
2023-01-23T08:48:12.779Z,1.40
2023-01-23T08:50:14.565Z,1.40
2023-01-23T08:52:16.315Z,1.50
2023-01-23T08:54:18.120Z,1.50
2023-01-23T08:56:22.419Z,1.50
2023-01-23T08:58:24.130Z,1.50
2023-01-23T09:00:26.070Z,1.60
2023-01-23T09:02:27.882Z,1.70
2023-01-23T09:04:29.804Z,1.90
2023-01-23T09:06:31.600Z,1.90
2023-01-23T09:08:35.336Z,1.90
2023-01-23T09:10:37.738Z,1.90
2023-01-23T09:12:41.676Z,2.00
2023-01-23T09:14:43.492Z,2.00
2023-01-23T09:16:45.170Z,2.10
2023-01-23T09:18:47.021Z,2.10
2023-01-23T09:20:49.632Z,2.00
2023-01-23T09:22:52.202Z,2.10
2023-01-23T09:24:54.133Z,2.10
2023-01-23T09:26:55.868Z,2.10
2023-01-23T09:29:00.970Z,2.10
2023-01-23T09:31:07.614Z,2.20
2023-01-23T09:33:09.451Z,2.20
2023-01-23T09:35:11.525Z,2.10
2023-01-23T09:37:13.187Z,2.10
2023-01-23T09:39:14.998Z,2.10
2023-01-23T09:41:24.669Z,2.10
2023-01-23T09:43:41.711Z,2.10
2023-01-23T09:45:50.832Z,2.20
2023-01-23T09:48:02.157Z,2.20
2023-01-23T09:50:10.909Z,2.30
2023-01-23T09:52:17.853Z,2.30
2023-01-23T09:54:41.132Z,2.30
2023-01-23T09:56:46.192Z,2.30
2023-01-23T09:59:17.157Z,2.40
2023-01-23T10:01:18.896Z,2.50
2023-01-23T10:03:21.681Z,2.70
2023-01-23T10:05:44.665Z,2.80
2023-01-23T10:08:05.348Z,2.80
2023-01-23T10:10:26.130Z,2.70
2023-01-23T10:12:45.170Z,2.70
2023-01-23T10:14:52.693Z,2.60
2023-01-23T10:17:22.231Z,2.70
2023-01-23T10:19:46.558Z,2.80
2023-01-23T10:22:22.374Z,3.00
2023-01-23T10:24:45.834Z,3.10
2023-01-23T10:26:48.769Z,3.20
2023-01-23T10:28:56.269Z,3.10
2023-01-23T10:31:07.808Z,3.00
2023-01-23T10:33:19.922Z,3.00
2023-01-23T10:35:53.921Z,3.00
2023-01-23T10:38:02.733Z,2.90
2023-01-23T10:40:11.618Z,2.90
2023-01-23T10:42:14.319Z,2.80
2023-01-23T10:44:17.537Z,2.90
2023-01-23T10:46:54.001Z,2.80
2023-01-23T10:48:56.709Z,2.70
2023-01-23T10:51:00.851Z,2.80
2023-01-23T10:53:19.299Z,2.70
2023-01-23T10:55:24.500Z,2.60
2023-01-23T10:57:29.097Z,2.70
2023-01-23T11:00:03.885Z,2.70
2023-01-23T11:02:17.861Z,2.80
2023-01-23T11:04:25.397Z,3.00
2023-01-23T11:06:52.966Z,2.90
2023-01-23T11:09:35.134Z,3.00
2023-01-23T11:11:36.951Z,2.90
2023-01-23T11:13:39.124Z,3.00
2023-01-23T11:15:42.089Z,2.90
2023-01-23T11:17:44.142Z,3.00
2023-01-23T11:19:49.152Z,3.10
2023-01-23T11:21:59.638Z,3.10
2023-01-23T11:24:10.247Z,3.00
2023-01-23T11:26:31.562Z,3.00
2023-01-23T11:28:45.961Z,3.00
2023-01-23T11:31:19.414Z,3.00
2023-01-23T11:33:47.669Z,3.10
2023-01-23T11:35:55.167Z,3.10
2023-01-23T11:38:00.472Z,3.00
2023-01-23T11:40:05.813Z,3.00
2023-01-23T11:42:11.322Z,3.10
2023-01-23T11:44:23.039Z,3.00
2023-01-23T11:46:25.056Z,2.90
2023-01-23T11:48:55.490Z,3.00
2023-01-23T11:51:16.675Z,3.10
2023-01-23T11:53:43.187Z,3.10
2023-01-23T11:56:10.875Z,3.10
2023-01-23T11:58:32.136Z,3.10
2023-01-23T12:00:51.489Z,3.20
2023-01-23T12:02:57.558Z,3.10
2023-01-23T12:05:25.002Z,3.10
2023-01-23T12:07:27.762Z,3.00
2023-01-23T12:10:05.044Z,2.90
2023-01-23T12:12:27.395Z,3.10
2023-01-23T12:14:52.853Z,3.00
2023-01-23T12:17:04.180Z,3.10
2023-01-23T12:19:19.173Z,3.10
2023-01-23T12:21:29.556Z,3.30
2023-01-23T12:23:45.398Z,3.30
2023-01-23T12:26:19.767Z,3.50
2023-01-23T12:28:43.333Z,3.60
2023-01-23T12:31:10.018Z,3.40
2023-01-23T12:33:31.147Z,3.50
2023-01-23T12:35:44.629Z,3.70
2023-01-23T12:37:47.086Z,3.50
2023-01-23T12:40:15.706Z,3.90
2023-01-23T12:42:45.015Z,3.60
2023-01-23T12:44:54.131Z,4.00
2023-01-23T12:47:02.999Z,4.30
2023-01-23T12:49:23.762Z,4.40
2023-01-23T12:51:34.657Z,4.40
2023-01-23T12:53:40.971Z,4.50
2023-01-23T12:56:07.449Z,4.60
2023-01-23T12:58:15.978Z,4.90
2023-01-23T13:01:05.274Z,5.00
2023-01-23T13:03:25.897Z,5.00
2023-01-23T13:05:33.828Z,5.40
2023-01-23T13:07:54.780Z,5.40
2023-01-23T13:10:24.582Z,5.40
2023-01-23T13:12:28.363Z,5.10
2023-01-23T13:14:43.441Z,4.60
2023-01-23T13:16:56.843Z,4.90
2023-01-23T13:19:35.918Z,5.10
2023-01-23T13:21:56.467Z,4.70
2023-01-23T13:24:40.707Z,4.40
2023-01-23T13:26:42.451Z,4.60
2023-01-23T13:28:46.402Z,4.90
2023-01-23T13:31:00.598Z,5.10
2023-01-23T13:33:08.458Z,4.50
2023-01-23T13:35:45.067Z,4.40
2023-01-23T13:37:51.342Z,4.30
2023-01-23T13:40:14.453Z,4.50
2023-01-23T13:42:16.442Z,4.70
2023-01-23T13:44:40.960Z,4.70
2023-01-23T14:25:41.166Z,4.40
2023-01-23T14:28:52.197Z,4.40
2023-01-23T14:31:08.985Z,4.20
2023-01-23T14:33:21.649Z,4.10
2023-01-23T14:35:23.971Z,4.10
2023-01-23T14:37:29.482Z,4.20
2023-01-23T14:39:34.273Z,4.20
2023-01-23T14:41:41.584Z,4.10
2023-01-23T14:43:44.530Z,4.10
2023-01-23T14:45:58.320Z,4.10
2023-01-23T14:48:05.906Z,4.10
2023-01-23T14:50:11.509Z,4.00
2023-01-23T14:52:24.097Z,3.90
2023-01-23T14:54:29.653Z,4.00
2023-01-23T14:56:41.793Z,4.00
2023-01-23T14:58:44.360Z,3.80
2023-01-23T15:00:46.339Z,3.70
2023-01-23T15:02:51.677Z,3.80
2023-01-23T15:05:12.074Z,3.80
2023-01-23T15:07:17.963Z,3.70
2023-01-23T15:09:26.012Z,3.70
2023-01-23T15:11:29.033Z,3.70
2023-01-23T15:13:48.855Z,3.70
2023-01-23T15:15:59.822Z,3.70
2023-01-23T15:18:03.544Z,3.60
2023-01-23T15:20:05.822Z,3.50
2023-01-23T15:22:26.273Z,3.50
2023-01-23T15:24:28.952Z,3.60
2023-01-23T15:26:34.623Z,3.50
2023-01-23T15:28:49.634Z,3.50
2023-01-23T15:30:51.595Z,3.50
2023-01-23T15:32:53.659Z,3.50
2023-01-23T15:34:57.759Z,3.50
2023-01-23T15:37:07.294Z,3.50
2023-01-23T15:39:18.869Z,3.50
2023-01-23T15:41:34.772Z,3.40
2023-01-23T15:43:36.873Z,3.40
2023-01-23T15:45:38.679Z,3.40
2023-01-23T15:47:40.440Z,3.40
2023-01-23T15:49:42.131Z,3.40
2023-01-23T15:51:44.039Z,3.40
2023-01-23T15:53:45.742Z,3.50
2023-01-23T15:55:47.593Z,3.40
2023-01-23T15:57:49.609Z,3.40
2023-01-23T15:59:51.475Z,3.30
2023-01-23T16:01:53.206Z,3.30
2023-01-23T16:03:55.071Z,3.40
2023-01-23T16:05:56.834Z,3.40
2023-01-23T16:08:06.080Z,3.40
2023-01-23T16:10:23.378Z,3.30
2023-01-23T16:12:28.408Z,3.30
2023-01-23T16:14:30.188Z,3.30
2023-01-23T16:16:32.019Z,3.30
2023-01-23T16:18:33.826Z,3.30
2023-01-23T16:20:39.220Z,3.30
2023-01-23T16:22:41.904Z,3.30
2023-01-23T16:24:44.107Z,3.30
2023-01-23T16:26:48.378Z,3.20
2023-01-23T16:28:50.426Z,3.20
2023-01-23T16:30:53.038Z,3.20
2023-01-23T16:32:56.738Z,3.20
2023-01-23T16:34:58.987Z,3.20
2023-01-23T16:37:02.844Z,3.20
2023-01-23T16:39:05.724Z,3.20
2023-01-23T16:41:09.475Z,3.20
2023-01-23T16:43:11.348Z,3.20
2023-01-23T16:45:26.637Z,3.20
2023-01-23T16:47:28.691Z,3.20
2023-01-23T16:49:32.753Z,3.10
2023-01-23T16:51:36.298Z,3.10
2023-01-23T16:53:42.445Z,3.10
2023-01-23T16:55:45.599Z,3.10
2023-01-23T16:57:49.937Z,3.10
2023-01-23T16:59:52.753Z,3.00
2023-01-23T17:01:57.454Z,3.10
2023-01-23T17:04:02.406Z,3.10
2023-01-23T17:06:04.711Z,3.10
2023-01-23T17:08:32.576Z,3.10
2023-01-23T17:10:45.531Z,3.10
2023-01-23T17:12:52.780Z,3.10
2023-01-23T17:14:55.170Z,3.10
2023-01-23T17:17:07.199Z,3.10
2023-01-23T17:19:31.335Z,3.10
2023-01-23T17:21:34.820Z,3.10
2023-01-23T17:23:36.622Z,3.10
2023-01-23T17:25:50.943Z,3.00
2023-01-23T17:28:11.881Z,3.10
2023-01-23T17:30:17.815Z,3.10
2023-01-23T17:32:27.008Z,3.10
2023-01-23T17:34:36.073Z,3.00
2023-01-23T17:36:43.345Z,3.00
2023-01-23T17:38:45.245Z,3.00
2023-01-23T17:40:47.741Z,3.10
2023-01-23T17:42:49.573Z,3.10
2023-01-23T17:44:51.411Z,3.10
2023-01-23T17:46:54.746Z,3.10
2023-01-23T17:48:57.379Z,3.00
2023-01-23T17:50:59.484Z,3.10
2023-01-23T17:53:01.359Z,3.10
2023-01-23T17:55:03.455Z,3.10
2023-01-23T17:57:05.450Z,3.10
2023-01-23T17:59:07.237Z,3.10
2023-01-23T18:01:22.384Z,3.10
2023-01-23T18:03:24.843Z,3.10
2023-01-23T18:05:27.396Z,3.10
2023-01-23T18:07:29.276Z,3.10
2023-01-23T18:09:31.132Z,3.10
2023-01-23T18:11:33.735Z,3.10
2023-01-23T18:13:46.108Z,3.10
2023-01-23T18:16:02.846Z,3.00
2023-01-23T18:18:04.563Z,3.10
2023-01-23T18:20:16.956Z,3.10
2023-01-23T18:22:18.994Z,3.10
2023-01-23T18:24:31.378Z,3.00
2023-01-23T18:27:12.168Z,3.00
2023-01-23T18:29:20.656Z,3.00
2023-01-23T18:31:58.726Z,3.00
2023-01-23T18:34:28.002Z,3.00
2023-01-23T18:36:49.955Z,3.10
2023-01-23T18:39:13.011Z,3.20
2023-01-23T18:41:14.644Z,3.10
2023-01-23T18:43:46.128Z,3.10
2023-01-23T18:48:35.091Z,3.10
2023-01-23T18:50:45.513Z,3.10
2023-01-23T18:52:52.865Z,3.10
2023-01-23T18:55:23.530Z,3.10
2023-01-23T18:57:43.714Z,3.10
2023-01-23T19:00:27.378Z,3.10
2023-01-23T19:02:37.561Z,3.10
2023-01-23T19:05:21.170Z,3.10
2023-01-23T19:07:58.606Z,3.10
2023-01-23T19:10:05.120Z,3.10
2023-01-23T19:12:31.060Z,3.20
2023-01-23T19:14:50.733Z,3.20
2023-01-23T19:17:00.686Z,3.20
2023-01-23T19:19:16.145Z,3.20
2023-01-23T19:21:27.363Z,3.20
2023-01-23T19:23:44.335Z,3.30
2023-01-23T19:25:48.027Z,3.30
2023-01-23T19:27:52.866Z,3.30
2023-01-23T19:29:54.813Z,3.30
2023-01-23T19:32:05.222Z,3.30
2023-01-23T19:34:07.932Z,3.30
2023-01-23T19:36:12.694Z,3.30
2023-01-23T19:38:18.189Z,3.40
2023-01-23T19:40:23.196Z,3.40
2023-01-23T19:42:25.568Z,3.40
2023-01-23T19:44:45.291Z,3.40
2023-01-23T19:47:02.763Z,3.40
2023-01-23T19:49:13.249Z,3.30
2023-01-23T19:51:23.108Z,3.30
2023-01-23T19:53:32.704Z,3.30
2023-01-23T19:56:02.138Z,3.40
2023-01-23T19:58:07.025Z,3.40
2023-01-23T20:00:14.030Z,3.40
2023-01-23T20:02:25.366Z,3.40
2023-01-23T20:04:36.593Z,3.40
2023-01-23T20:06:52.218Z,3.40
2023-01-23T20:08:56.738Z,3.40
2023-01-23T20:18:04.143Z,3.50
2023-01-23T20:20:12.405Z,3.50
2023-01-23T20:22:17.125Z,3.50
2023-01-23T20:24:21.466Z,3.50
2023-01-23T20:26:34.402Z,3.50
2023-01-23T20:32:05.268Z,3.50
2023-01-23T20:34:07.360Z,3.50
2023-01-23T20:36:11.031Z,3.50
2023-01-23T20:38:12.726Z,3.50
2023-01-23T20:40:14.554Z,3.50
2023-01-23T20:42:16.597Z,3.50
2023-01-23T20:44:18.416Z,3.50
2023-01-23T20:46:20.331Z,3.50
2023-01-23T20:48:22.714Z,3.50
2023-01-23T20:50:24.972Z,3.50
2023-01-23T20:52:45.196Z,3.50
2023-01-23T20:54:47.288Z,3.50
2023-01-23T20:56:49.541Z,3.50
2023-01-23T20:59:09.862Z,3.50
2023-01-23T21:01:12.834Z,3.50
2023-01-23T21:03:14.849Z,3.50
2023-01-23T21:05:16.795Z,3.50
2023-01-23T21:07:21.632Z,3.50
2023-01-23T21:09:24.036Z,3.50
2023-01-23T21:11:25.952Z,3.50
2023-01-23T21:13:27.901Z,3.50
2023-01-23T21:15:32.326Z,3.60
2023-01-23T21:17:35.021Z,3.60
2023-01-23T21:19:38.932Z,3.50
2023-01-23T21:21:41.013Z,3.50
2023-01-23T21:23:43.450Z,3.50
2023-01-23T21:25:45.539Z,3.50
2023-01-23T21:27:47.449Z,3.50
2023-01-23T21:29:49.420Z,3.50
2023-01-23T21:31:51.688Z,3.50
2023-01-23T21:33:54.304Z,3.50
2023-01-23T21:35:56.098Z,3.50
2023-01-23T21:37:59.032Z,3.50
2023-01-23T21:40:00.957Z,3.50
2023-01-23T21:42:02.888Z,3.50
2023-01-23T21:44:04.977Z,3.50
2023-01-23T21:46:07.228Z,3.50
2023-01-23T21:48:09.139Z,3.50
2023-01-23T21:50:11.412Z,3.50
2023-01-23T21:52:13.257Z,3.50
2023-01-23T21:54:15.001Z,3.50
2023-01-23T21:56:19.838Z,3.50
2023-01-23T21:58:21.619Z,3.50
2023-01-23T22:00:55.652Z,3.50
2023-01-23T22:02:57.585Z,3.40
2023-01-23T22:04:59.405Z,3.40
2023-01-23T22:07:01.256Z,3.40
2023-01-23T22:09:04.865Z,3.50
2023-01-23T22:11:07.999Z,3.50
2023-01-23T22:13:09.861Z,3.50
2023-01-23T22:15:11.957Z,3.40
2023-01-23T22:17:13.802Z,3.40
2023-01-23T22:19:24.179Z,3.40
2023-01-23T22:21:26.713Z,3.40
2023-01-23T22:23:28.998Z,3.40
2023-01-23T22:25:30.800Z,3.40
2023-01-23T22:27:32.559Z,3.40
2023-01-23T22:29:34.312Z,3.40
2023-01-23T22:31:36.294Z,3.40
2023-01-23T22:33:41.108Z,3.40
2023-01-23T22:35:43.319Z,3.40
2023-01-23T22:37:45.196Z,3.40
2023-01-23T22:39:47.014Z,3.40
2023-01-23T22:41:50.350Z,3.40
2023-01-23T22:43:54.449Z,3.50
2023-01-23T22:46:17.335Z,3.50
2023-01-23T22:48:19.185Z,3.40
2023-01-23T22:50:21.080Z,3.50
2023-01-23T22:52:22.979Z,3.40
2023-01-23T22:54:24.787Z,3.50
2023-01-23T22:56:27.934Z,3.40
2023-01-23T22:58:30.219Z,3.50
2023-01-23T23:00:32.043Z,3.40
2023-01-23T23:02:34.386Z,3.40
2023-01-23T23:04:36.204Z,3.40
2023-01-23T23:06:38.011Z,3.40
2023-01-23T23:08:40.770Z,3.40
2023-01-23T23:10:42.687Z,3.40
2023-01-23T23:12:44.471Z,3.40
2023-01-23T23:14:46.290Z,3.50
2023-01-23T23:16:48.081Z,3.40
2023-01-23T23:18:52.733Z,3.40
2023-01-23T23:20:59.318Z,3.40
2023-01-23T23:23:01.093Z,3.40
2023-01-23T23:25:02.941Z,3.40
2023-01-23T23:27:04.750Z,3.40
2023-01-23T23:29:06.586Z,3.40
2023-01-23T23:31:09.571Z,3.40
2023-01-23T23:33:11.399Z,3.40
2023-01-23T23:35:13.296Z,3.40
2023-01-23T23:37:15.206Z,3.40
2023-01-23T23:39:17.134Z,3.40
2023-01-23T23:41:19.329Z,3.40
2023-01-23T23:43:21.095Z,3.40
2023-01-23T23:45:23.275Z,3.40
2023-01-23T23:47:25.282Z,3.40
2023-01-23T23:49:27.166Z,3.40
2023-01-23T23:51:29.032Z,3.40
2023-01-23T23:53:31.290Z,3.30
2023-01-23T23:55:33.152Z,3.40
2023-01-23T23:57:35.193Z,3.40
2023-01-23T23:59:36.996Z,3.30
